Time;durP1;ratioP1;P1;durP2;ratioP2;P2;SDS_P1;SDS_P2;PMS_P1;PMS_P2;Temp;Humidity;BMP_temperature;BMP_pressure;BME280_temperature;BME280_humidity;BME280_pressure;Samples;Min_cycle;Max_cycle;Signal;HPM_P1;HPM_P2
2023/10/04 00:00:15;;;;;;;5.63;4.13;;;11.30;99.90;;;;;;5074809;28;20287;-69
2023/10/04 00:02:44;;;;;;;7.30;4.63;;;11.30;99.90;;;;;;5074625;28;20221;-69
2023/10/04 00:05:14;;;;;;;7.43;4.63;;;11.20;99.90;;;;;;5074563;28;20205;-69
2023/10/04 00:07:41;;;;;;;5.63;4.73;;;11.20;99.90;;;;;;5074957;28;20304;-69
2023/10/04 00:10:08;;;;;;;7.13;4.87;;;11.00;99.90;;;;;;5074616;28;20236;-69
2023/10/04 00:12:35;;;;;;;5.80;4.30;;;11.00;99.90;;;;;;5074495;28;20220;-69
2023/10/04 00:15:02;;;;;;;7.17;5.13;;;11.00;99.90;;;;;;5074459;28;20722;-69
2023/10/04 00:17:29;;;;;;;5.60;4.70;;;10.90;99.90;;;;;;5074584;28;20204;-69
2023/10/04 00:19:57;;;;;;;5.67;4.83;;;10.80;99.90;;;;;;5074273;28;20722;-69
2023/10/04 00:22:25;;;;;;;7.60;5.27;;;10.70;99.90;;;;;;5074281;28;20228;-69
2023/10/04 00:24:52;;;;;;;6.73;5.20;;;10.50;99.90;;;;;;5074334;28;20193;-69
2023/10/04 00:27:19;;;;;;;6.77;4.80;;;10.40;99.90;;;;;;5074166;28;20288;-69
2023/10/04 00:29:45;;;;;;;8.40;5.43;;;10.20;99.90;;;;;;5073588;28;20723;-69
2023/10/04 00:32:13;;;;;;;7.43;5.23;;;10.10;99.90;;;;;;5074255;28;20197;-69
2023/10/04 00:34:40;;;;;;;7.07;5.30;;;10.10;99.90;;;;;;5074243;28;20380;-70
2023/10/04 00:37:09;;;;;;;7.57;5.50;;;10.00;99.90;;;;;;5074225;28;20201;-69
2023/10/04 00:39:36;;;;;;;6.13;5.33;;;9.90;99.90;;;;;;5074163;28;20204;-69
2023/10/04 00:42:04;;;;;;;6.63;5.93;;;9.90;99.90;;;;;;5073568;28;20228;-69
2023/10/04 00:44:34;;;;;;;7.93;6.03;;;9.90;99.90;;;;;;5074174;28;20211;-69
2023/10/04 00:47:02;;;;;;;6.83;6.13;;;9.90;99.90;;;;;;5073940;28;20247;-69
2023/10/04 00:49:29;;;;;;;7.23;6.10;;;9.90;99.90;;;;;;5073719;28;20660;-69
2023/10/04 00:51:58;;;;;;;9.87;6.57;;;9.90;99.90;;;;;;5073809;28;20197;-69
2023/10/04 00:54:26;;;;;;;8.57;6.60;;;9.90;99.90;;;;;;5073880;28;20196;-69
2023/10/04 00:56:55;;;;;;;8.37;6.43;;;9.90;99.90;;;;;;5073691;28;20239;-69
2023/10/04 00:59:21;;;;;;;10.17;7.10;;;9.90;99.90;;;;;;5073570;28;20711;-69
2023/10/04 01:01:50;;;;;;;7.87;6.43;;;9.80;99.90;;;;;;5073331;28;20232;-69
2023/10/04 01:04:17;;;;;;;7.93;6.93;;;9.60;99.90;;;;;;5073445;28;20197;-68
2023/10/04 01:06:44;;;;;;;9.43;6.97;;;9.60;99.90;;;;;;5073392;28;20201;-69
2023/10/04 01:09:12;;;;;;;10.20;7.40;;;9.60;99.90;;;;;;5073525;28;20244;-68
2023/10/04 01:11:47;;;;;;;9.00;7.40;;;9.60;99.90;;;;;;5073028;28;20288;-68
2023/10/04 01:14:23;;;;;;;8.77;7.07;;;9.60;99.90;;;;;;5073491;28;20287;-69
2023/10/04 01:16:51;;;;;;;12.10;8.37;;;9.60;99.90;;;;;;5073256;28;20204;-69
2023/10/04 01:19:18;;;;;;;10.97;7.90;;;9.70;99.90;;;;;;5073069;28;20603;-68
2023/10/04 01:21:45;;;;;;;11.53;8.77;;;9.60;99.90;;;;;;5072869;28;20287;-68
2023/10/04 01:24:13;;;;;;;11.10;8.53;;;9.70;99.90;;;;;;5073065;28;20549;-68
2023/10/04 01:26:41;;;;;;;10.83;8.30;;;9.70;99.90;;;;;;5073148;28;20216;-68
2023/10/04 01:29:11;;;;;;;13.00;8.93;;;9.60;99.90;;;;;;5073057;28;20197;-69
2023/10/04 01:31:38;;;;;;;13.70;9.07;;;9.60;99.90;;;;;;5073115;28;20197;-68
2023/10/04 01:34:06;;;;;;;11.90;9.10;;;9.70;99.90;;;;;;5073086;28;20205;-68
2023/10/04 01:36:33;;;;;;;12.97;9.47;;;9.70;99.90;;;;;;5073189;28;20196;-68
2023/10/04 01:39:00;;;;;;;12.50;9.50;;;9.70;99.90;;;;;;5073716;28;20197;-67
2023/10/04 01:41:28;;;;;;;15.00;10.40;;;9.60;99.90;;;;;;5073044;28;20236;-68
2023/10/04 01:44:00;;;;;;;13.00;9.50;;;9.60;99.90;;;;;;5073014;28;20199;-68
2023/10/04 01:46:27;;;;;;;12.70;9.47;;;9.50;99.90;;;;;;5072838;28;20212;-68
2023/10/04 01:48:56;;;;;;;14.70;10.33;;;9.40;99.90;;;;;;5072701;28;20203;-68
2023/10/04 01:51:26;;;;;;;13.10;10.47;;;9.40;99.90;;;;;;5072653;28;20668;-69
2023/10/04 01:53:53;;;;;;;13.90;11.00;;;9.40;99.90;;;;;;5072879;28;20201;-68
2023/10/04 01:56:20;;;;;;;14.90;10.87;;;9.40;99.90;;;;;;5072693;28;20285;-69
2023/10/04 01:58:48;;;;;;;14.33;10.80;;;9.50;99.90;;;;;;5072583;28;20655;-68
2023/10/04 02:01:15;;;;;;;16.67;10.57;;;9.40;99.90;;;;;;5072425;28;20208;-69
2023/10/04 02:03:42;;;;;;;13.57;10.67;;;9.40;99.90;;;;;;5072867;28;20259;-69
2023/10/04 02:06:09;;;;;;;15.33;11.33;;;9.40;99.90;;;;;;5072641;28;20196;-69
2023/10/04 02:08:36;;;;;;;17.20;12.20;;;9.30;99.90;;;;;;5072662;28;20200;-69
2023/10/04 02:11:06;;;;;;;18.07;12.10;;;9.30;99.90;;;;;;5072676;28;20201;-69
2023/10/04 02:13:35;;;;;;;13.63;10.90;;;9.30;99.90;;;;;;5072777;28;20645;-68
2023/10/04 02:16:08;;;;;;;16.10;11.13;;;9.20;99.90;;;;;;5072386;28;20197;-69
2023/10/04 02:18:35;;;;;;;14.20;11.53;;;9.20;99.90;;;;;;5072589;28;20270;-68
2023/10/04 02:21:02;;;;;;;16.57;11.23;;;9.10;99.90;;;;;;5072469;28;20204;-69
2023/10/04 02:23:29;;;;;;;14.47;10.20;;;9.10;99.90;;;;;;5072341;28;20233;-69
2023/10/04 02:25:57;;;;;;;12.67;9.93;;;9.00;99.90;;;;;;5072458;28;20197;-69
2023/10/04 02:28:25;;;;;;;11.40;9.40;;;8.90;99.90;;;;;;5072266;28;20193;-69
2023/10/04 02:30:54;;;;;;;11.70;9.50;;;8.80;99.90;;;;;;5072558;28;20201;-69
2023/10/04 02:33:22;;;;;;;12.27;9.40;;;8.70;99.90;;;;;;5072472;28;20288;-69
2023/10/04 02:35:50;;;;;;;17.83;12.37;;;8.60;99.90;;;;;;5072641;28;20244;-69
2023/10/04 02:38:19;;;;;;;20.07;12.90;;;8.60;99.90;;;;;;5072270;28;20216;-69
2023/10/04 02:40:46;;;;;;;16.00;12.97;;;8.70;99.90;;;;;;5071980;28;20225;-69
2023/10/04 02:43:15;;;;;;;13.73;11.53;;;8.70;99.90;;;;;;5072406;28;20250;-69
2023/10/04 02:45:42;;;;;;;18.63;12.80;;;8.50;99.90;;;;;;5072352;28;20220;-69
2023/10/04 02:48:10;;;;;;;17.20;12.63;;;8.40;99.90;;;;;;5072393;28;20207;-69
2023/10/04 02:50:39;;;;;;;18.03;12.67;;;8.40;99.90;;;;;;5072048;28;20390;-69
2023/10/04 02:53:09;;;;;;;16.07;12.20;;;8.40;99.90;;;;;;5073835;28;20205;-69
2023/10/04 02:55:36;;;;;;;20.30;13.90;;;8.50;99.90;;;;;;5075856;28;20200;-69
2023/10/04 02:58:05;;;;;;;19.20;13.80;;;8.40;99.90;;;;;;5076118;28;20196;-69
2023/10/04 03:00:33;;;;;;;18.20;13.83;;;8.40;99.90;;;;;;5075948;28;20299;-70
2023/10/04 03:03:00;;;;;;;18.57;13.50;;;8.50;99.90;;;;;;5075649;28;20233;-70
2023/10/04 03:05:29;;;;;;;22.70;13.97;;;8.60;99.90;;;;;;5075760;28;20307;-69
2023/10/04 03:08:03;;;;;;;21.37;14.40;;;8.40;99.90;;;;;;5075862;28;20548;-67
2023/10/04 03:10:32;;;;;;;22.27;14.70;;;8.60;99.90;;;;;;5075773;28;20199;-69
2023/10/04 03:13:01;;;;;;;24.27;16.27;;;8.80;99.90;;;;;;5075679;28;20246;-69
2023/10/04 03:15:28;;;;;;;31.07;20.77;;;9.00;99.90;;;;;;5075698;28;20205;-69
2023/10/04 03:17:57;;;;;;;26.50;18.43;;;9.20;99.90;;;;;;5075616;28;20568;-69
2023/10/04 03:20:25;;;;;;;26.27;18.43;;;9.40;99.90;;;;;;5075479;28;20201;-69
2023/10/04 03:22:55;;;;;;;26.77;18.47;;;9.40;99.90;;;;;;5075192;28;20691;-69
2023/10/04 03:25:26;;;;;;;25.67;18.93;;;9.60;99.90;;;;;;5075515;28;20208;-69
2023/10/04 03:27:54;;;;;;;29.27;20.90;;;9.70;99.90;;;;;;5075387;28;20197;-69
2023/10/04 03:30:20;;;;;;;28.77;20.80;;;9.60;99.90;;;;;;5075641;28;20197;-69
2023/10/04 03:32:52;;;;;;;27.63;19.80;;;9.70;99.90;;;;;;5075273;28;20201;-69
2023/10/04 03:35:21;;;;;;;33.07;21.70;;;9.70;99.90;;;;;;5075478;28;20209;-69
2023/10/04 03:37:50;;;;;;;32.57;20.40;;;9.80;99.90;;;;;;5075389;28;20232;-69
2023/10/04 03:40:17;;;;;;;34.27;22.37;;;9.80;99.90;;;;;;5074961;28;20670;-70
2023/10/04 03:42:47;;;;;;;44.70;24.40;;;9.80;99.90;;;;;;5075005;28;20229;-69
2023/10/04 03:45:17;;;;;;;37.50;23.63;;;9.80;99.90;;;;;;5074901;28;20201;-69
2023/10/04 03:47:44;;;;;;;45.03;24.47;;;9.90;99.90;;;;;;5074872;28;20652;-69
2023/10/04 03:50:12;;;;;;;44.27;24.77;;;9.80;99.90;;;;;;5075085;28;20193;-69
2023/10/04 03:52:39;;;;;;;41.67;23.53;;;9.80;99.90;;;;;;5075011;28;20208;-69
2023/10/04 03:55:10;;;;;;;40.37;23.17;;;9.90;99.90;;;;;;5075115;28;20204;-69
2023/10/04 03:57:38;;;;;;;40.97;23.57;;;9.90;99.90;;;;;;5074840;28;20294;-70
2023/10/04 04:00:15;;;;;;;43.27;23.50;;;9.90;99.90;;;;;;5074684;28;20193;-69
2023/10/04 04:02:43;;;;;;;41.43;24.53;;;9.90;99.90;;;;;;5074795;28;20231;-69
2023/10/04 04:05:11;;;;;;;44.17;25.23;;;10.00;99.90;;;;;;5073641;28;20291;-69
2023/10/04 04:07:38;;;;;;;43.20;25.40;;;10.00;99.90;;;;;;5074595;28;20287;-69
2023/10/04 04:10:07;;;;;;;52.40;26.37;;;10.00;99.90;;;;;;5074440;28;20254;-69
2023/10/04 04:12:36;;;;;;;41.63;24.97;;;10.00;99.90;;;;;;5074372;28;20510;-70
2023/10/04 04:15:08;;;;;;;51.07;26.97;;;10.00;99.90;;;;;;5074644;28;20228;-69
2023/10/04 04:17:36;;;;;;;50.70;25.90;;;10.00;99.90;;;;;;5074595;28;20200;-70
2023/10/04 04:20:08;;;;;;;45.90;27.03;;;10.00;99.90;;;;;;5074312;28;20289;-69
2023/10/04 04:22:34;;;;;;;45.27;26.17;;;10.00;99.90;;;;;;5074412;28;20228;-69
2023/10/04 04:25:03;;;;;;;45.47;26.20;;;10.00;99.90;;;;;;5074330;28;20717;-69
2023/10/04 04:27:30;;;;;;;43.07;26.07;;;10.00;99.90;;;;;;5074459;28;20197;-69
2023/10/04 04:29:57;;;;;;;44.50;26.43;;;10.10;99.90;;;;;;5074377;28;20197;-69
2023/10/04 04:32:27;;;;;;;47.23;27.67;;;10.00;99.90;;;;;;5074129;28;20213;-69
2023/10/04 04:34:54;;;;;;;50.23;27.03;;;10.10;99.90;;;;;;5074056;28;20221;-69
2023/10/04 04:37:22;;;;;;;41.40;26.07;;;10.10;99.90;;;;;;5073938;28;20204;-69
2023/10/04 04:39:48;;;;;;;47.07;27.33;;;10.20;99.90;;;;;;5073838;28;20246;-69
2023/10/04 04:42:20;;;;;;;46.83;27.60;;;10.20;99.90;;;;;;5073826;28;20699;-69
2023/10/04 04:44:47;;;;;;;45.33;27.03;;;10.20;99.90;;;;;;5073736;28;20207;-69
2023/10/04 04:47:16;;;;;;;44.80;26.93;;;10.20;99.90;;;;;;5073861;28;20211;-68
2023/10/04 04:49:44;;;;;;;46.80;26.90;;;10.20;99.90;;;;;;5073699;28;20231;-69
2023/10/04 04:52:11;;;;;;;44.50;26.70;;;10.20;99.90;;;;;;5073577;28;20225;-69
2023/10/04 04:54:38;;;;;;;43.40;27.97;;;10.30;99.90;;;;;;5073770;28;20252;-69
2023/10/04 04:57:07;;;;;;;46.50;27.97;;;10.30;99.90;;;;;;5073599;28;20196;-69
2023/10/04 04:59:35;;;;;;;48.47;30.33;;;10.30;99.90;;;;;;5073550;28;20197;-69
2023/10/04 05:02:01;;;;;;;46.93;29.20;;;10.30;99.90;;;;;;5073485;28;20711;-69
2023/10/04 05:04:28;;;;;;;42.33;27.27;;;10.30;99.90;;;;;;5073336;28;20201;-69
2023/10/04 05:06:56;;;;;;;44.20;27.23;;;10.30;99.90;;;;;;5073534;28;20196;-69
2023/10/04 05:09:22;;;;;;;42.47;26.77;;;10.30;99.90;;;;;;5073231;28;20201;-69
2023/10/04 05:11:49;;;;;;;44.43;27.87;;;10.30;99.90;;;;;;5073399;28;20256;-69
2023/10/04 05:14:16;;;;;;;45.10;27.70;;;10.30;99.90;;;;;;5073099;28;20561;-69
2023/10/04 05:16:42;;;;;;;45.07;29.33;;;10.30;99.90;;;;;;5073073;28;20220;-70
2023/10/04 05:19:11;;;;;;;40.80;26.50;;;10.20;99.90;;;;;;5073165;28;20209;-69
2023/10/04 05:21:37;;;;;;;41.10;27.13;;;10.30;99.90;;;;;;5073199;28;20255;-68
2023/10/04 05:24:06;;;;;;;39.03;25.53;;;10.30;99.90;;;;;;5073176;28;20283;-69
2023/10/04 05:26:35;;;;;;;36.93;24.43;;;10.20;99.90;;;;;;5073120;28;20197;-68
2023/10/04 05:29:03;;;;;;;40.03;26.47;;;10.20;99.90;;;;;;5072864;28;20661;-68
2023/10/04 05:31:29;;;;;;;42.77;25.27;;;10.10;99.90;;;;;;5072792;28;20193;-68
2023/10/04 05:33:56;;;;;;;42.70;26.77;;;10.10;99.90;;;;;;5072820;28;20204;-69
2023/10/04 05:36:23;;;;;;;41.40;26.23;;;10.10;99.90;;;;;;5073103;28;20208;-69
2023/10/04 05:38:51;;;;;;;42.03;26.43;;;10.10;99.90;;;;;;5072920;28;20236;-69
2023/10/04 05:41:19;;;;;;;37.03;24.93;;;10.20;99.90;;;;;;5072742;28;20271;-70
2023/10/04 05:43:46;;;;;;;38.00;25.20;;;10.10;99.90;;;;;;5072889;28;20228;-69
2023/10/04 05:46:15;;;;;;;38.57;25.13;;;10.10;99.90;;;;;;5072432;28;20197;-69
2023/10/04 05:48:42;;;;;;;33.77;23.73;;;10.10;99.90;;;;;;5072573;28;20193;-69
2023/10/04 05:51:08;;;;;;;37.70;25.00;;;10.00;99.90;;;;;;5072702;28;20270;-70
2023/10/04 05:53:37;;;;;;;33.43;23.23;;;10.00;99.90;;;;;;5072651;28;20193;-69
2023/10/04 05:56:04;;;;;;;37.13;24.73;;;10.00;99.90;;;;;;5072593;28;20220;-69
2023/10/04 05:58:34;;;;;;;35.07;23.97;;;10.00;99.90;;;;;;5072521;28;20659;-70
2023/10/04 06:01:01;;;;;;;37.17;24.10;;;10.00;99.90;;;;;;5079504;28;20208;-70
2023/10/04 06:03:29;;;;;;;37.80;23.60;;;10.00;99.90;;;;;;5072323;28;20549;-70
2023/10/04 06:05:56;;;;;;;36.17;23.97;;;10.00;99.90;;;;;;5072221;28;20207;-70
2023/10/04 06:08:22;;;;;;;36.23;23.70;;;10.00;99.90;;;;;;5072491;28;20197;-70
2023/10/04 06:10:51;;;;;;;36.50;23.60;;;10.00;99.90;;;;;;5072442;28;20267;-70
2023/10/04 06:13:18;;;;;;;34.83;24.20;;;10.10;99.90;;;;;;5072496;28;20197;-70
2023/10/04 06:15:48;;;;;;;32.33;22.90;;;10.10;99.90;;;;;;5072593;28;20284;-69
2023/10/04 06:18:17;;;;;;;33.00;21.70;;;10.20;99.90;;;;;;5072608;28;20288;-70
2023/10/04 06:20:45;;;;;;;30.70;21.60;;;10.20;99.90;;;;;;5072503;28;20231;-69
2023/10/04 06:23:14;;;;;;;28.57;20.80;;;10.20;99.90;;;;;;5072524;28;20217;-69
2023/10/04 06:25:42;;;;;;;28.50;20.60;;;10.20;99.90;;;;;;5071050;28;20212;-69
2023/10/04 06:28:10;;;;;;;28.53;19.77;;;10.20;99.90;;;;;;5070735;28;20200;-69
2023/10/04 06:30:37;;;;;;;29.87;20.43;;;10.30;99.90;;;;;;5072674;28;20205;-69
2023/10/04 06:33:06;;;;;;;26.60;18.43;;;10.30;99.90;;;;;;5073087;28;20205;-69
2023/10/04 06:35:34;;;;;;;22.17;15.47;;;10.40;99.90;;;;;;5072958;28;20192;-69
2023/10/04 06:38:04;;;;;;;21.87;16.43;;;10.40;99.90;;;;;;5072637;28;20512;-69
2023/10/04 06:40:31;;;;;;;20.73;13.90;;;10.50;99.90;;;;;;5073613;28;20207;-69
2023/10/04 06:43:01;;;;;;;17.43;13.50;;;10.50;99.90;;;;;;5075716;28;20224;-69
2023/10/04 06:45:28;;;;;;;18.53;13.57;;;10.60;99.90;;;;;;5074821;28;20566;-71
2023/10/04 06:47:56;;;;;;;16.83;12.83;;;10.60;99.90;;;;;;5075523;28;20641;-69
2023/10/04 06:50:28;;;;;;;14.27;11.23;;;10.80;99.90;;;;;;5076040;28;20232;-69
2023/10/04 06:52:57;;;;;;;13.60;10.70;;;10.80;99.90;;;;;;5075777;28;20197;-68
2023/10/04 06:55:24;;;;;;;13.60;9.93;;;10.80;99.90;;;;;;5076176;28;20197;-69
2023/10/04 06:57:50;;;;;;;12.53;9.93;;;10.90;99.90;;;;;;5075737;28;20200;-68
2023/10/04 07:00:19;;;;;;;14.20;9.87;;;11.00;99.90;;;;;;5075858;28;20204;-68
2023/10/04 07:02:47;;;;;;;12.17;8.20;;;11.10;99.90;;;;;;5075893;28;20584;-68
2023/10/04 07:05:15;;;;;;;11.97;8.07;;;11.10;99.90;;;;;;5075518;28;20254;-68
2023/10/04 07:07:44;;;;;;;11.33;8.57;;;11.20;99.90;;;;;;5075616;28;20560;-68
2023/10/04 07:10:14;;;;;;;9.03;7.40;;;11.30;99.90;;;;;;5075739;28;20235;-67
2023/10/04 07:12:41;;;;;;;10.70;7.37;;;11.30;99.90;;;;;;5075553;28;20254;-68
2023/10/04 07:15:10;;;;;;;7.87;6.53;;;11.40;99.90;;;;;;5075475;28;20201;-69
2023/10/04 07:17:37;;;;;;;9.63;6.60;;;11.50;99.90;;;;;;5075486;28;20246;-67
2023/10/04 07:20:07;;;;;;;8.23;6.43;;;11.70;99.90;;;;;;5075506;28;20211;-67
2023/10/04 07:22:34;;;;;;;7.57;5.90;;;11.80;99.90;;;;;;5075764;28;20201;-68
2023/10/04 07:25:07;;;;;;;7.90;5.70;;;11.70;99.90;;;;;;5075465;28;20233;-68
2023/10/04 07:27:33;;;;;;;6.93;5.20;;;11.70;99.90;;;;;;5075322;28;20247;-68
2023/10/04 07:30:01;;;;;;;5.57;4.97;;;11.80;99.90;;;;;;5075318;28;20251;-68
2023/10/04 07:32:28;;;;;;;7.13;4.83;;;11.70;99.90;;;;;;5075039;28;20201;-68
2023/10/04 07:34:55;;;;;;;7.87;4.53;;;11.60;99.90;;;;;;5075171;28;20205;-68
2023/10/04 07:37:22;;;;;;;6.97;4.83;;;11.70;99.90;;;;;;5075002;28;20590;-68
2023/10/04 07:39:49;;;;;;;7.03;4.60;;;11.60;99.90;;;;;;5074037;28;20201;-68
2023/10/04 07:42:17;;;;;;;7.33;4.83;;;11.70;99.90;;;;;;5074642;28;20228;-68
2023/10/04 07:44:44;;;;;;;7.47;4.90;;;11.80;99.90;;;;;;5075311;28;20225;-68
2023/10/04 07:47:10;;;;;;;6.20;4.67;;;11.80;99.90;;;;;;5074814;28;20220;-69
2023/10/04 07:49:37;;;;;;;7.60;5.03;;;11.80;99.90;;;;;;5049482;28;20226;-69
2023/10/04 07:52:04;;;;;;;7.63;4.53;;;12.00;99.90;;;;;;5035314;28;20261;-68
2023/10/04 07:54:31;;;;;;;7.57;4.50;;;12.20;99.90;;;;;;5035006;28;20206;-68
2023/10/04 07:56:58;;;;;;;6.43;4.50;;;12.20;99.90;;;;;;5035085;28;20197;-68
2023/10/04 07:59:26;;;;;;;5.63;4.20;;;12.20;99.90;;;;;;5034765;28;20225;-68
2023/10/04 08:01:53;;;;;;;7.43;4.23;;;12.30;99.90;;;;;;5034607;28;20206;-68
2023/10/04 08:04:20;;;;;;;6.93;4.23;;;12.40;99.90;;;;;;5034903;28;20226;-68
2023/10/04 08:06:52;;;;;;;5.53;3.80;;;12.40;99.90;;;;;;5034896;28;20201;-68
2023/10/04 08:09:19;;;;;;;6.33;4.20;;;12.50;99.90;;;;;;5034931;28;20202;-68
2023/10/04 08:11:45;;;;;;;8.33;4.07;;;12.50;99.90;;;;;;5034549;28;20672;-68
2023/10/04 08:14:12;;;;;;;7.63;3.60;;;12.70;99.90;;;;;;5034462;28;20199;-68
2023/10/04 08:16:40;;;;;;;8.37;3.40;;;12.70;99.90;;;;;;5034660;28;20194;-68
2023/10/04 08:19:07;;;;;;;6.67;3.77;;;12.80;99.90;;;;;;5034652;28;20206;-68
2023/10/04 08:21:34;;;;;;;7.20;3.83;;;12.80;99.90;;;;;;5034473;28;20199;-67
2023/10/04 08:24:00;;;;;;;7.33;3.87;;;13.10;99.90;;;;;;5034212;28;20225;-68
2023/10/04 08:26:27;;;;;;;7.97;3.43;;;13.20;99.90;;;;;;5034502;28;20203;-68
2023/10/04 08:28:54;;;;;;;5.20;3.00;;;13.50;99.90;;;;;;5034301;28;20214;-68
2023/10/04 08:31:21;;;;;;;5.43;3.13;;;13.70;99.90;;;;;;5034502;28;20221;-69
2023/10/04 08:33:50;;;;;;;7.27;3.10;;;13.80;99.90;;;;;;5034118;28;20206;-69
2023/10/04 08:36:17;;;;;;;8.63;3.40;;;13.90;99.90;;;;;;5034248;28;20205;-69
2023/10/04 08:38:45;;;;;;;6.47;3.33;;;13.90;99.90;;;;;;5033983;28;20202;-69
2023/10/04 08:41:13;;;;;;;5.90;3.03;;;13.70;99.90;;;;;;5033626;28;20745;-69
2023/10/04 08:43:39;;;;;;;5.43;2.90;;;13.80;99.90;;;;;;5033940;28;20222;-69
2023/10/04 08:46:08;;;;;;;5.43;2.80;;;13.70;99.90;;;;;;5033951;28;20268;-68
2023/10/04 08:48:35;;;;;;;6.87;2.57;;;14.00;99.90;;;;;;5033892;28;20226;-68
2023/10/04 08:51:21;;;;;;;6.27;2.77;;;14.20;99.90;;;;;;5033358;28;20206;-68
2023/10/04 08:53:56;;;;;;;8.60;2.90;;;14.40;99.90;;;;;;5033741;28;20245;-69
2023/10/04 08:56:25;;;;;;;3.93;2.80;;;14.80;99.90;;;;;;5033407;28;20198;-69
2023/10/04 08:58:52;;;;;;;3.67;2.53;;;15.20;99.90;;;;;;5033508;28;20253;-69
2023/10/04 09:01:20;;;;;;;4.77;2.77;;;15.00;99.90;;;;;;5033587;28;20651;-68
2023/10/04 09:03:48;;;;;;;3.37;2.40;;;14.80;99.90;;;;;;5033509;28;20317;-68
2023/10/04 09:06:16;;;;;;;2.57;1.87;;;14.80;99.90;;;;;;5033647;28;20658;-68
2023/10/04 09:08:44;;;;;;;6.17;2.50;;;14.90;99.90;;;;;;5033684;28;20202;-83
2023/10/04 09:11:11;;;;;;;5.30;2.60;;;14.80;99.90;;;;;;5034160;28;20405;-69
2023/10/04 09:13:47;;;;;;;4.40;2.47;;;15.30;99.90;;;;;;5033567;28;20206;-69
2023/10/04 09:16:22;;;;;;;3.83;1.70;;;15.60;99.90;;;;;;5032324;28;20197;-70
2023/10/04 09:18:49;;;;;;;5.28;2.00;;;16.20;99.90;;;;;;5033301;28;20252;-70
2023/10/04 09:21:17;;;;;;;5.53;2.17;;;16.00;99.90;;;;;;5033593;28;20199;-70
2023/10/04 09:23:45;;;;;;;6.15;2.78;;;15.80;99.90;;;;;;5033363;28;20198;-70
2023/10/04 09:26:18;;;;;;;3.72;1.98;;;16.30;99.90;;;;;;5033296;28;20202;-70
2023/10/04 09:28:48;;;;;;;6.60;2.17;;;15.80;99.90;;;;;;5033333;28;20220;-70
2023/10/04 09:31:18;;;;;;;5.57;1.92;;;15.70;99.90;;;;;;5033118;28;20237;-70
2023/10/04 09:33:45;;;;;;;3.42;1.70;;;15.90;99.90;;;;;;5033454;28;20253;-71
2023/10/04 09:36:13;;;;;;;3.35;1.77;;;16.10;99.90;;;;;;5033320;28;20280;-69
2023/10/04 09:38:41;;;;;;;4.03;1.70;;;15.80;99.90;;;;;;5033218;28;20199;-69
2023/10/04 09:41:10;;;;;;;3.17;1.75;;;16.30;99.90;;;;;;5040986;28;20229;-69
2023/10/04 09:43:38;;;;;;;3.20;1.52;;;16.90;99.90;;;;;;5053033;28;20201;-70
2023/10/04 09:46:07;;;;;;;3.03;1.80;;;17.20;99.90;;;;;;5052710;28;20198;-68
2023/10/04 09:48:36;;;;;;;4.25;1.80;;;16.70;99.90;;;;;;5052738;28;20198;-68
2023/10/04 09:51:05;;;;;;;3.40;1.80;;;16.30;99.90;;;;;;5052667;28;20200;-69
2023/10/04 09:53:31;;;;;;;2.47;1.75;;;16.40;99.90;;;;;;5052720;28;20207;-70
2023/10/04 09:56:02;;;;;;;3.63;1.70;;;16.40;99.90;;;;;;5058914;28;20208;-68
2023/10/04 09:58:31;;;;;;;3.28;1.50;;;16.70;99.90;;;;;;5090671;28;20273;-69
2023/10/04 10:01:04;;;;;;;2.88;1.58;;;16.50;99.90;;;;;;5084615;28;20196;-69
2023/10/04 10:03:37;;;;;;;4.88;1.60;;;16.80;99.90;;;;;;5071615;28;20276;-69
2023/10/04 10:06:06;;;;;;;3.20;1.60;;;16.50;99.90;;;;;;5072410;28;20228;-69
2023/10/04 10:08:35;;;;;;;4.93;1.80;;;16.40;99.90;;;;;;5072051;28;20224;-69
2023/10/04 10:11:05;;;;;;;3.95;1.80;;;17.10;99.90;;;;;;5072010;28;20201;-68
2023/10/04 10:13:32;;;;;;;5.80;1.83;;;17.40;99.90;;;;;;5071915;28;20197;-69
2023/10/04 10:15:59;;;;;;;4.97;1.63;;;18.00;99.00;;;;;;5072681;28;20201;-69
2023/10/04 10:18:27;;;;;;;3.33;1.65;;;17.60;98.30;;;;;;5072322;28;20193;-69
2023/10/04 10:20:55;;;;;;;6.28;2.17;;;16.90;99.90;;;;;;5072385;28;20251;-69
2023/10/04 10:23:22;;;;;;;4.50;1.73;;;17.20;99.90;;;;;;5071886;28;20580;-69
2023/10/04 10:26:19;;;;;;;3.10;1.55;;;17.80;99.30;;;;;;5072077;28;20695;-69
2023/10/04 10:28:47;;;;;;;3.03;1.50;;;19.00;98.30;;;;;;5071590;28;20197;-69
2023/10/04 10:31:20;;;;;;;3.22;1.60;;;18.80;94.90;;;;;;5071747;28;20208;-69
2023/10/04 10:33:49;;;;;;;3.63;1.90;;;18.50;96.10;;;;;;5071729;28;20652;-68
2023/10/04 10:36:27;;;;;;;2.25;1.70;;;19.00;96.40;;;;;;5072244;28;20205;-69
2023/10/04 10:38:54;;;;;;;3.15;1.50;;;20.00;94.10;;;;;;5071945;28;20208;-68
2023/10/04 10:42:04;;;;;;;4.28;2.20;;;20.90;92.90;;;;;;5071828;28;20235;-69
2023/10/04 10:44:34;;;;;;;4.63;1.90;;;21.00;90.70;;;;;;5071850;28;20265;-69
2023/10/04 10:47:06;;;;;;;3.30;1.77;;;21.40;90.20;;;;;;5071919;28;20197;-67
2023/10/04 10:49:51;;;;;;;5.00;1.90;;;21.50;88.50;;;;;;5071837;28;20197;-68
2023/10/04 10:52:26;;;;;;;3.72;2.10;;;23.30;84.20;;;;;;5072163;28;20228;-67
2023/10/04 10:54:53;;;;;;;2.78;1.70;;;22.40;81.70;;;;;;5072010;28;20205;-68
2023/10/04 10:57:21;;;;;;;2.15;1.40;;;21.50;84.70;;;;;;5072045;28;20575;-69
2023/10/04 10:59:53;;;;;;;3.55;1.92;;;20.50;86.50;;;;;;5072173;28;20201;-68
2023/10/04 11:02:19;;;;;;;3.65;1.98;;;19.30;87.40;;;;;;5072031;28;20203;-67
2023/10/04 11:04:46;;;;;;;3.88;1.70;;;18.70;89.80;;;;;;5071825;28;20268;-68
2023/10/04 11:07:13;;;;;;;2.38;1.60;;;19.10;88.50;;;;;;5071811;28;20219;-69
2023/10/04 11:09:40;;;;;;;4.35;1.95;;;18.40;89.20;;;;;;5072062;28;20255;-68
2023/10/04 11:12:08;;;;;;;5.68;1.90;;;18.70;90.50;;;;;;5071925;28;20679;-68
2023/10/04 11:14:36;;;;;;;3.30;1.80;;;17.90;90.70;;;;;;5074175;28;20209;-72
2023/10/04 11:17:05;;;;;;;4.38;2.03;;;17.50;91.10;;;;;;5075334;28;20568;-69
2023/10/04 11:19:32;;;;;;;3.85;2.00;;;17.30;91.80;;;;;;5074846;28;20201;-69
2023/10/04 11:21:59;;;;;;;3.47;1.80;;;18.40;92.00;;;;;;5075649;28;20197;-69
2023/10/04 11:24:26;;;;;;;3.80;2.00;;;20.40;89.60;;;;;;5075547;28;20221;-69
2023/10/04 11:26:56;;;;;;;2.30;1.60;;;21.80;84.30;;;;;;5074955;28;20247;-69
2023/10/04 11:29:24;;;;;;;3.90;2.28;;;22.20;80.30;;;;;;5075622;28;20204;-69
2023/10/04 11:31:51;;;;;;;2.83;1.73;;;21.90;77.80;;;;;;5075434;28;20205;-69
2023/10/04 11:34:19;;;;;;;4.47;1.98;;;20.40;78.80;;;;;;5094951;28;20195;-70
2023/10/04 11:36:47;;;;;;;3.10;1.85;;;19.80;83.00;;;;;;5095694;28;20192;-69
2023/10/04 11:39:18;;;;;;;4.68;1.77;;;19.70;82.60;;;;;;5095374;28;20730;-69
2023/10/04 11:41:47;;;;;;;4.28;1.77;;;18.90;84.50;;;;;;5095280;28;20238;-70
2023/10/04 11:44:14;;;;;;;5.03;2.50;;;18.80;84.30;;;;;;5095472;28;20283;-69
2023/10/04 11:46:58;;;;;;;5.85;3.78;;;18.20;84.90;;;;;;5095374;28;20196;-69
2023/10/04 11:49:28;;;;;;;4.03;2.40;;;20.00;85.70;;;;;;5095535;28;20628;-69
2023/10/04 11:51:59;;;;;;;2.20;1.50;;;21.30;78.30;;;;;;5095315;28;20287;-69
2023/10/04 11:54:37;;;;;;;3.20;1.70;;;23.00;73.10;;;;;;5095214;28;20200;-69
2023/10/04 11:57:05;;;;;;;4.43;1.70;;;22.40;72.10;;;;;;5095053;28;20211;-70
2023/10/04 11:59:33;;;;;;;4.28;1.90;;;22.40;71.50;;;;;;5095307;28;20203;-69
2023/10/04 12:02:00;;;;;;;4.60;1.90;;;23.00;71.50;;;;;;5095134;28;20200;-69
2023/10/04 12:04:29;;;;;;;4.10;1.70;;;24.00;70.80;;;;;;5094838;28;20640;-69
2023/10/04 12:07:00;;;;;;;3.58;1.63;;;23.30;71.20;;;;;;5095056;28;20197;-69
2023/10/04 12:09:30;;;;;;;2.65;1.65;;;22.70;68.20;;;;;;5095010;28;20200;-69
2023/10/04 12:11:57;;;;;;;2.60;1.70;;;23.40;66.30;;;;;;5083223;28;20200;-69
2023/10/04 12:14:26;;;;;;;3.13;1.95;;;21.50;70.00;;;;;;5092835;28;20647;-68
2023/10/04 12:16:53;;;;;;;4.35;1.95;;;20.40;73.20;;;;;;5085704;28;20224;-68
2023/10/04 12:19:20;;;;;;;2.65;1.88;;;19.90;75.00;;;;;;5074169;28;20641;-69
2023/10/04 12:21:48;;;;;;;3.92;2.13;;;19.80;75.90;;;;;;5073868;28;20200;-68
2023/10/04 12:24:15;;;;;;;2.70;1.70;;;20.50;75.80;;;;;;5073993;28;20557;-69
2023/10/04 12:26:42;;;;;;;4.53;1.52;;;19.40;73.80;;;;;;5073338;28;20252;-68
2023/10/04 12:29:11;;;;;;;3.13;1.45;;;18.90;70.60;;;;;;5074017;28;20228;-69
2023/10/04 12:31:37;;;;;;;2.10;1.38;;;19.30;71.30;;;;;;5074339;28;20200;-69
2023/10/04 12:34:05;;;;;;;2.00;1.60;;;19.80;69.30;;;;;;5074081;28;20615;-69
2023/10/04 12:36:31;;;;;;;2.67;1.98;;;19.50;70.50;;;;;;5074387;28;20710;-69
2023/10/04 12:39:00;;;;;;;3.53;1.50;;;22.10;69.10;;;;;;5073496;28;20208;-69
2023/10/04 12:41:26;;;;;;;4.20;1.60;;;23.80;63.40;;;;;;5073587;28;20233;-69
2023/10/04 12:43:53;;;;;;;2.45;1.48;;;24.50;58.50;;;;;;5073789;28;20205;-69
2023/10/04 12:46:19;;;;;;;3.17;1.58;;;25.90;57.70;;;;;;5073442;28;20220;-69